sensor_id;sensor_type;location;lat;lon;timestamp;P1;durP1;ratioP1;P2;durP2;ratioP2
36315;SDS011;22343;50.820;2.666;2023-08-01T00:02:08;8.93;;;5.20;;
36315;SDS011;22343;50.820;2.666;2023-08-01T00:04:53;12.18;;;5.10;;
36315;SDS011;22343;50.820;2.666;2023-08-01T00:07:37;9.32;;;5.63;;
36315;SDS011;22343;50.820;2.666;2023-08-01T00:10:21;8.88;;;5.45;;
36315;SDS011;22343;50.820;2.666;2023-08-01T00:13:06;11.85;;;5.60;;
36315;SDS011;22343;50.820;2.666;2023-08-01T00:15:50;13.20;;;5.55;;
36315;SDS011;22343;50.820;2.666;2023-08-01T00:18:35;10.30;;;5.45;;
36315;SDS011;22343;50.820;2.666;2023-08-01T00:21:20;9.35;;;5.18;;
36315;SDS011;22343;50.820;2.666;2023-08-01T00:24:05;10.20;;;5.47;;
36315;SDS011;22343;50.820;2.666;2023-08-01T00:26:50;11.02;;;5.65;;
36315;SDS011;22343;50.820;2.666;2023-08-01T00:29:39;14.25;;;5.82;;
36315;SDS011;22343;50.820;2.666;2023-08-01T00:32:23;9.35;;;5.30;;
36315;SDS011;22343;50.820;2.666;2023-08-01T00:35:07;10.13;;;5.80;;
36315;SDS011;22343;50.820;2.666;2023-08-01T00:37:52;10.45;;;5.55;;
36315;SDS011;22343;50.820;2.666;2023-08-01T00:40:38;12.73;;;5.85;;
36315;SDS011;22343;50.820;2.666;2023-08-01T00:43:23;12.05;;;5.97;;
36315;SDS011;22343;50.820;2.666;2023-08-01T00:46:07;14.88;;;6.43;;
36315;SDS011;22343;50.820;2.666;2023-08-01T00:48:52;12.63;;;5.55;;
36315;SDS011;22343;50.820;2.666;2023-08-01T00:51:37;11.07;;;5.55;;
36315;SDS011;22343;50.820;2.666;2023-08-01T00:54:22;10.75;;;5.82;;
36315;SDS011;22343;50.820;2.666;2023-08-01T00:57:06;11.68;;;5.80;;
36315;SDS011;22343;50.820;2.666;2023-08-01T00:59:51;14.55;;;5.95;;
36315;SDS011;22343;50.820;2.666;2023-08-01T01:02:35;13.40;;;5.88;;
36315;SDS011;22343;50.820;2.666;2023-08-01T01:05:20;14.25;;;6.47;;
36315;SDS011;22343;50.820;2.666;2023-08-01T01:08:06;11.73;;;5.93;;
36315;SDS011;22343;50.820;2.666;2023-08-01T01:10:51;8.68;;;5.85;;
36315;SDS011;22343;50.820;2.666;2023-08-01T01:13:35;13.32;;;6.50;;
36315;SDS011;22343;50.820;2.666;2023-08-01T01:16:20;12.73;;;6.15;;
36315;SDS011;22343;50.820;2.666;2023-08-01T01:19:06;15.73;;;6.32;;
36315;SDS011;22343;50.820;2.666;2023-08-01T01:21:51;15.75;;;6.32;;
36315;SDS011;22343;50.820;2.666;2023-08-01T01:24:36;12.55;;;6.22;;
36315;SDS011;22343;50.820;2.666;2023-08-01T01:27:21;14.38;;;6.40;;
36315;SDS011;22343;50.820;2.666;2023-08-01T01:30:06;16.17;;;6.55;;
36315;SDS011;22343;50.820;2.666;2023-08-01T01:32:52;15.55;;;5.97;;
36315;SDS011;22343;50.820;2.666;2023-08-01T01:35:37;12.77;;;6.25;;
36315;SDS011;22343;50.820;2.666;2023-08-01T01:38:21;8.35;;;6.10;;
36315;SDS011;22343;50.820;2.666;2023-08-01T01:41:06;14.33;;;6.03;;
36315;SDS011;22343;50.820;2.666;2023-08-01T01:43:50;13.35;;;7.03;;
36315;SDS011;22343;50.820;2.666;2023-08-01T01:46:34;15.70;;;6.68;;
36315;SDS011;22343;50.820;2.666;2023-08-01T01:49:19;14.02;;;6.57;;
36315;SDS011;22343;50.820;2.666;2023-08-01T01:52:03;15.30;;;7.10;;
36315;SDS011;22343;50.820;2.666;2023-08-01T01:54:48;14.55;;;7.47;;
36315;SDS011;22343;50.820;2.666;2023-08-01T01:57:32;14.43;;;6.85;;
36315;SDS011;22343;50.820;2.666;2023-08-01T02:00:17;13.13;;;6.43;;
36315;SDS011;22343;50.820;2.666;2023-08-01T02:03:01;12.82;;;6.57;;
36315;SDS011;22343;50.820;2.666;2023-08-01T02:05:46;15.15;;;6.78;;
36315;SDS011;22343;50.820;2.666;2023-08-01T02:08:31;17.90;;;6.68;;
36315;SDS011;22343;50.820;2.666;2023-08-01T02:11:15;12.45;;;6.55;;
36315;SDS011;22343;50.820;2.666;2023-08-01T02:14:00;13.13;;;6.63;;
36315;SDS011;22343;50.820;2.666;2023-08-01T02:16:45;10.55;;;6.07;;
36315;SDS011;22343;50.820;2.666;2023-08-01T02:19:30;11.13;;;5.85;;
36315;SDS011;22343;50.820;2.666;2023-08-01T02:22:14;14.65;;;6.53;;
36315;SDS011;22343;50.820;2.666;2023-08-01T02:24:58;14.32;;;6.38;;
36315;SDS011;22343;50.820;2.666;2023-08-01T02:27:43;13.98;;;6.20;;
36315;SDS011;22343;50.820;2.666;2023-08-01T02:30:27;12.10;;;6.45;;
36315;SDS011;22343;50.820;2.666;2023-08-01T02:33:13;11.68;;;6.10;;
36315;SDS011;22343;50.820;2.666;2023-08-01T02:35:58;14.48;;;6.13;;
36315;SDS011;22343;50.820;2.666;2023-08-01T02:38:43;12.65;;;6.07;;
36315;SDS011;22343;50.820;2.666;2023-08-01T02:41:27;12.50;;;5.90;;
36315;SDS011;22343;50.820;2.666;2023-08-01T02:44:12;8.88;;;5.97;;
36315;SDS011;22343;50.820;2.666;2023-08-01T02:46:57;13.43;;;6.22;;
36315;SDS011;22343;50.820;2.666;2023-08-01T02:49:41;12.55;;;6.07;;
36315;SDS011;22343;50.820;2.666;2023-08-01T02:52:25;11.95;;;5.78;;
36315;SDS011;22343;50.820;2.666;2023-08-01T02:55:10;11.98;;;5.88;;
36315;SDS011;22343;50.820;2.666;2023-08-01T02:57:54;9.77;;;5.82;;
36315;SDS011;22343;50.820;2.666;2023-08-01T03:00:38;12.27;;;5.78;;
36315;SDS011;22343;50.820;2.666;2023-08-01T03:03:24;10.20;;;5.60;;
36315;SDS011;22343;50.820;2.666;2023-08-01T03:06:08;11.27;;;5.68;;
36315;SDS011;22343;50.820;2.666;2023-08-01T03:08:53;9.18;;;5.22;;
36315;SDS011;22343;50.820;2.666;2023-08-01T03:11:37;10.25;;;5.78;;
36315;SDS011;22343;50.820;2.666;2023-08-01T03:14:21;12.60;;;5.65;;
36315;SDS011;22343;50.820;2.666;2023-08-01T03:17:06;13.00;;;5.60;;
36315;SDS011;22343;50.820;2.666;2023-08-01T03:19:52;11.95;;;5.85;;
36315;SDS011;22343;50.820;2.666;2023-08-01T03:22:39;15.63;;;5.72;;
36315;SDS011;22343;50.820;2.666;2023-08-01T03:25:25;9.90;;;5.22;;
36315;SDS011;22343;50.820;2.666;2023-08-01T03:28:09;11.73;;;5.93;;
36315;SDS011;22343;50.820;2.666;2023-08-01T03:30:53;13.40;;;5.53;;
36315;SDS011;22343;50.820;2.666;2023-08-01T03:33:38;7.35;;;5.05;;
36315;SDS011;22343;50.820;2.666;2023-08-01T03:36:22;11.23;;;5.63;;
36315;SDS011;22343;50.820;2.666;2023-08-01T03:39:07;9.68;;;4.72;;
36315;SDS011;22343;50.820;2.666;2023-08-01T03:41:53;10.88;;;5.03;;
36315;SDS011;22343;50.820;2.666;2023-08-01T03:44:38;12.00;;;5.33;;
36315;SDS011;22343;50.820;2.666;2023-08-01T03:47:22;8.73;;;5.10;;
36315;SDS011;22343;50.820;2.666;2023-08-01T03:50:06;11.07;;;5.27;;
36315;SDS011;22343;50.820;2.666;2023-08-01T03:52:51;10.73;;;5.60;;
36315;SDS011;22343;50.820;2.666;2023-08-01T03:55:36;10.40;;;5.50;;
36315;SDS011;22343;50.820;2.666;2023-08-01T03:58:20;9.20;;;5.13;;
36315;SDS011;22343;50.820;2.666;2023-08-01T04:01:05;15.65;;;5.00;;
36315;SDS011;22343;50.820;2.666;2023-08-01T04:03:50;12.52;;;5.85;;
36315;SDS011;22343;50.820;2.666;2023-08-01T04:06:34;9.37;;;5.00;;
36315;SDS011;22343;50.820;2.666;2023-08-01T04:09:18;10.23;;;4.95;;
36315;SDS011;22343;50.820;2.666;2023-08-01T04:12:03;9.93;;;5.20;;
36315;SDS011;22343;50.820;2.666;2023-08-01T04:14:48;9.47;;;5.00;;
36315;SDS011;22343;50.820;2.666;2023-08-01T04:17:33;10.20;;;5.32;;
36315;SDS011;22343;50.820;2.666;2023-08-01T04:20:17;12.02;;;5.60;;
36315;SDS011;22343;50.820;2.666;2023-08-01T04:23:01;10.88;;;5.40;;
36315;SDS011;22343;50.820;2.666;2023-08-01T04:25:46;10.27;;;5.38;;
36315;SDS011;22343;50.820;2.666;2023-08-01T04:28:30;9.15;;;5.05;;
36315;SDS011;22343;50.820;2.666;2023-08-01T04:31:15;10.90;;;5.00;;
36315;SDS011;22343;50.820;2.666;2023-08-01T04:33:59;9.55;;;5.25;;
36315;SDS011;22343;50.820;2.666;2023-08-01T04:36:43;9.85;;;5.38;;
36315;SDS011;22343;50.820;2.666;2023-08-01T04:39:28;12.00;;;5.63;;
36315;SDS011;22343;50.820;2.666;2023-08-01T04:42:12;12.00;;;5.40;;
36315;SDS011;22343;50.820;2.666;2023-08-01T04:44:56;12.27;;;5.60;;
36315;SDS011;22343;50.820;2.666;2023-08-01T04:47:40;10.65;;;5.43;;
36315;SDS011;22343;50.820;2.666;2023-08-01T04:50:25;10.98;;;5.38;;
36315;SDS011;22343;50.820;2.666;2023-08-01T04:53:09;13.02;;;5.72;;
36315;SDS011;22343;50.820;2.666;2023-08-01T04:55:55;9.02;;;5.30;;
36315;SDS011;22343;50.820;2.666;2023-08-01T04:58:39;10.02;;;5.68;;
36315;SDS011;22343;50.820;2.666;2023-08-01T05:01:24;13.70;;;5.60;;
36315;SDS011;22343;50.820;2.666;2023-08-01T05:04:08;11.45;;;5.55;;
36315;SDS011;22343;50.820;2.666;2023-08-01T05:06:53;11.07;;;5.63;;
36315;SDS011;22343;50.820;2.666;2023-08-01T05:09:37;10.60;;;5.43;;
36315;SDS011;22343;50.820;2.666;2023-08-01T05:12:21;12.98;;;6.00;;
36315;SDS011;22343;50.820;2.666;2023-08-01T05:15:06;8.98;;;5.63;;
36315;SDS011;22343;50.820;2.666;2023-08-01T05:17:52;14.68;;;5.78;;
36315;SDS011;22343;50.820;2.666;2023-08-01T05:20:36;10.93;;;5.53;;
36315;SDS011;22343;50.820;2.666;2023-08-01T05:23:21;17.55;;;6.13;;
36315;SDS011;22343;50.820;2.666;2023-08-01T05:26:05;13.52;;;5.38;;
36315;SDS011;22343;50.820;2.666;2023-08-01T05:28:49;10.73;;;5.47;;
36315;SDS011;22343;50.820;2.666;2023-08-01T05:31:35;10.18;;;5.30;;
36315;SDS011;22343;50.820;2.666;2023-08-01T05:34:20;11.73;;;5.50;;
36315;SDS011;22343;50.820;2.666;2023-08-01T05:37:04;13.13;;;5.55;;
36315;SDS011;22343;50.820;2.666;2023-08-01T05:39:49;11.03;;;5.80;;
36315;SDS011;22343;50.820;2.666;2023-08-01T05:42:33;10.65;;;5.10;;
36315;SDS011;22343;50.820;2.666;2023-08-01T05:45:18;12.15;;;5.38;;
36315;SDS011;22343;50.820;2.666;2023-08-01T05:48:02;13.32;;;5.43;;
36315;SDS011;22343;50.820;2.666;2023-08-01T05:50:47;12.70;;;5.70;;
36315;SDS011;22343;50.820;2.666;2023-08-01T05:53:31;10.88;;;5.15;;
36315;SDS011;22343;50.820;2.666;2023-08-01T05:56:15;10.15;;;5.18;;
36315;SDS011;22343;50.820;2.666;2023-08-01T05:59:00;14.57;;;5.25;;
36315;SDS011;22343;50.820;2.666;2023-08-01T06:01:45;11.25;;;5.20;;
36315;SDS011;22343;50.820;2.666;2023-08-01T06:04:29;8.77;;;5.28;;
36315;SDS011;22343;50.820;2.666;2023-08-01T06:07:13;14.30;;;5.20;;
36315;SDS011;22343;50.820;2.666;2023-08-01T06:09:58;11.75;;;5.05;;
36315;SDS011;22343;50.820;2.666;2023-08-01T06:12:42;8.52;;;4.45;;
36315;SDS011;22343;50.820;2.666;2023-08-01T06:15:26;8.02;;;4.63;;
36315;SDS011;22343;50.820;2.666;2023-08-01T06:18:11;10.70;;;4.70;;
36315;SDS011;22343;50.820;2.666;2023-08-01T06:20:56;10.15;;;4.63;;
36315;SDS011;22343;50.820;2.666;2023-08-01T06:23:41;8.38;;;4.55;;
36315;SDS011;22343;50.820;2.666;2023-08-01T06:26:27;9.93;;;4.70;;
36315;SDS011;22343;50.820;2.666;2023-08-01T06:29:12;8.82;;;4.32;;
36315;SDS011;22343;50.820;2.666;2023-08-01T06:31:56;8.60;;;4.45;;
36315;SDS011;22343;50.820;2.666;2023-08-01T06:34:40;7.82;;;4.25;;
36315;SDS011;22343;50.820;2.666;2023-08-01T06:37:24;9.05;;;4.22;;
36315;SDS011;22343;50.820;2.666;2023-08-01T06:40:09;8.15;;;4.18;;
36315;SDS011;22343;50.820;2.666;2023-08-01T06:42:54;13.45;;;4.25;;
36315;SDS011;22343;50.820;2.666;2023-08-01T06:45:38;9.23;;;4.05;;
36315;SDS011;22343;50.820;2.666;2023-08-01T06:48:22;8.90;;;4.32;;
36315;SDS011;22343;50.820;2.666;2023-08-01T06:51:07;9.23;;;4.32;;
36315;SDS011;22343;50.820;2.666;2023-08-01T06:53:51;8.60;;;4.30;;
36315;SDS011;22343;50.820;2.666;2023-08-01T06:56:35;9.07;;;4.30;;
36315;SDS011;22343;50.820;2.666;2023-08-01T06:59:20;10.85;;;4.72;;
36315;SDS011;22343;50.820;2.666;2023-08-01T07:02:04;10.77;;;5.05;;
36315;SDS011;22343;50.820;2.666;2023-08-01T07:04:49;7.88;;;3.80;;
36315;SDS011;22343;50.820;2.666;2023-08-01T07:07:33;7.78;;;4.30;;
36315;SDS011;22343;50.820;2.666;2023-08-01T07:10:18;8.48;;;4.15;;
36315;SDS011;22343;50.820;2.666;2023-08-01T07:13:02;9.82;;;4.03;;
36315;SDS011;22343;50.820;2.666;2023-08-01T07:15:48;10.02;;;4.50;;
36315;SDS011;22343;50.820;2.666;2023-08-01T07:18:32;8.57;;;3.80;;
36315;SDS011;22343;50.820;2.666;2023-08-01T07:21:17;10.77;;;3.90;;
36315;SDS011;22343;50.820;2.666;2023-08-01T07:24:01;8.73;;;3.92;;
36315;SDS011;22343;50.820;2.666;2023-08-01T07:26:46;9.32;;;3.70;;
36315;SDS011;22343;50.820;2.666;2023-08-01T07:29:31;8.50;;;3.53;;
36315;SDS011;22343;50.820;2.666;2023-08-01T07:32:17;10.02;;;3.83;;
36315;SDS011;22343;50.820;2.666;2023-08-01T07:35:03;7.03;;;3.75;;
36315;SDS011;22343;50.820;2.666;2023-08-01T07:37:51;7.80;;;3.20;;
36315;SDS011;22343;50.820;2.666;2023-08-01T07:40:36;8.25;;;3.70;;
36315;SDS011;22343;50.820;2.666;2023-08-01T07:43:21;6.97;;;3.70;;
36315;SDS011;22343;50.820;2.666;2023-08-01T07:46:05;6.45;;;3.67;;
36315;SDS011;22343;50.820;2.666;2023-08-01T07:48:49;10.77;;;4.05;;
36315;SDS011;22343;50.820;2.666;2023-08-01T07:51:35;6.18;;;3.65;;
36315;SDS011;22343;50.820;2.666;2023-08-01T07:54:20;9.48;;;3.78;;
36315;SDS011;22343;50.820;2.666;2023-08-01T07:57:05;8.65;;;3.65;;
36315;SDS011;22343;50.820;2.666;2023-08-01T07:59:51;7.55;;;4.00;;
36315;SDS011;22343;50.820;2.666;2023-08-01T08:02:35;7.22;;;3.42;;
36315;SDS011;22343;50.820;2.666;2023-08-01T08:05:20;5.85;;;3.22;;
36315;SDS011;22343;50.820;2.666;2023-08-01T08:08:06;6.95;;;3.60;;
36315;SDS011;22343;50.820;2.666;2023-08-01T08:10:50;9.25;;;3.47;;
36315;SDS011;22343;50.820;2.666;2023-08-01T08:13:34;7.00;;;3.30;;
36315;SDS011;22343;50.820;2.666;2023-08-01T08:16:20;10.15;;;3.50;;
36315;SDS011;22343;50.820;2.666;2023-08-01T08:19:05;7.00;;;3.38;;
36315;SDS011;22343;50.820;2.666;2023-08-01T08:21:49;6.65;;;3.17;;
36315;SDS011;22343;50.820;2.666;2023-08-01T08:24:33;8.10;;;3.28;;
36315;SDS011;22343;50.820;2.666;2023-08-01T08:27:20;6.45;;;2.80;;
36315;SDS011;22343;50.820;2.666;2023-08-01T08:30:05;5.38;;;2.90;;
36315;SDS011;22343;50.820;2.666;2023-08-01T08:32:50;6.05;;;2.97;;
36315;SDS011;22343;50.820;2.666;2023-08-01T08:35:34;6.13;;;3.05;;
36315;SDS011;22343;50.820;2.666;2023-08-01T08:38:19;6.10;;;2.92;;
36315;SDS011;22343;50.820;2.666;2023-08-01T08:41:10;4.68;;;2.50;;
36315;SDS011;22343;50.820;2.666;2023-08-01T08:43:57;5.63;;;2.90;;
36315;SDS011;22343;50.820;2.666;2023-08-01T08:46:44;7.07;;;2.65;;
36315;SDS011;22343;50.820;2.666;2023-08-01T08:49:28;5.15;;;2.58;;
36315;SDS011;22343;50.820;2.666;2023-08-01T08:52:13;5.82;;;2.70;;
36315;SDS011;22343;50.820;2.666;2023-08-01T08:54:58;4.95;;;2.58;;
36315;SDS011;22343;50.820;2.666;2023-08-01T08:57:42;5.93;;;2.70;;
36315;SDS011;22343;50.820;2.666;2023-08-01T09:00:29;3.83;;;2.17;;
36315;SDS011;22343;50.820;2.666;2023-08-01T09:03:13;4.68;;;2.55;;
36315;SDS011;22343;50.820;2.666;2023-08-01T09:06:16;6.20;;;2.53;;
36315;SDS011;22343;50.820;2.666;2023-08-01T09:09:05;5.07;;;2.70;;
36315;SDS011;22343;50.820;2.666;2023-08-01T09:11:54;4.88;;;2.53;;
36315;SDS011;22343;50.820;2.666;2023-08-01T09:14:42;6.88;;;2.60;;
36315;SDS011;22343;50.820;2.666;2023-08-01T09:17:28;5.63;;;2.55;;
36315;SDS011;22343;50.820;2.666;2023-08-01T09:20:13;3.60;;;2.40;;
36315;SDS011;22343;50.820;2.666;2023-08-01T09:22:59;4.45;;;2.97;;
36315;SDS011;22343;50.820;2.666;2023-08-01T09:25:45;3.90;;;2.53;;
36315;SDS011;22343;50.820;2.666;2023-08-01T09:28:31;4.68;;;2.45;;
36315;SDS011;22343;50.820;2.666;2023-08-01T09:31:15;5.57;;;2.35;;
36315;SDS011;22343;50.820;2.666;2023-08-01T09:34:24;7.50;;;2.63;;
36315;SDS011;22343;50.820;2.666;2023-08-01T09:37:09;5.90;;;2.60;;
36315;SDS011;22343;50.820;2.666;2023-08-01T09:39:54;4.85;;;2.72;;
36315;SDS011;22343;50.820;2.666;2023-08-01T09:42:40;4.25;;;2.20;;
36315;SDS011;22343;50.820;2.666;2023-08-01T09:45:25;4.68;;;2.47;;
36315;SDS011;22343;50.820;2.666;2023-08-01T09:48:09;3.05;;;1.85;;
36315;SDS011;22343;50.820;2.666;2023-08-01T09:51:07;4.07;;;2.17;;
36315;SDS011;22343;50.820;2.666;2023-08-01T09:53:54;3.70;;;2.28;;
36315;SDS011;22343;50.820;2.666;2023-08-01T09:56:40;4.85;;;2.45;;
36315;SDS011;22343;50.820;2.666;2023-08-01T09:59:25;4.90;;;2.45;;
36315;SDS011;22343;50.820;2.666;2023-08-01T10:02:12;6.22;;;2.58;;
36315;SDS011;22343;50.820;2.666;2023-08-01T10:04:59;5.45;;;2.40;;
36315;SDS011;22343;50.820;2.666;2023-08-01T10:07:44;6.68;;;2.90;;
36315;SDS011;22343;50.820;2.666;2023-08-01T10:10:29;5.97;;;2.70;;
36315;SDS011;22343;50.820;2.666;2023-08-01T10:13:14;5.47;;;2.47;;
36315;SDS011;22343;50.820;2.666;2023-08-01T10:15:59;5.65;;;2.72;;
36315;SDS011;22343;50.820;2.666;2023-08-01T10:18:44;4.95;;;2.58;;
36315;SDS011;22343;50.820;2.666;2023-08-01T10:21:29;5.28;;;2.40;;
36315;SDS011;22343;50.820;2.666;2023-08-01T10:24:13;7.07;;;2.20;;
36315;SDS011;22343;50.820;2.666;2023-08-01T10:27:08;6.03;;;2.72;;
36315;SDS011;22343;50.820;2.666;2023-08-01T10:29:56;5.15;;;2.47;;
36315;SDS011;22343;50.820;2.666;2023-08-01T10:32:41;6.15;;;2.25;;
36315;SDS011;22343;50.820;2.666;2023-08-01T10:35:33;7.93;;;2.70;;
36315;SDS011;22343;50.820;2.666;2023-08-01T10:38:21;5.03;;;2.63;;
36315;SDS011;22343;50.820;2.666;2023-08-01T10:41:05;6.43;;;3.00;;
36315;SDS011;22343;50.820;2.666;2023-08-01T10:43:50;5.28;;;2.70;;
36315;SDS011;22343;50.820;2.666;2023-08-01T10:49:35;5.25;;;2.78;;
36315;SDS011;22343;50.820;2.666;2023-08-01T10:52:22;5.70;;;2.50;;
36315;SDS011;22343;50.820;2.666;2023-08-01T10:55:13;5.65;;;2.55;;
36315;SDS011;22343;50.820;2.666;2023-08-01T10:57:58;5.53;;;2.70;;
36315;SDS011;22343;50.820;2.666;2023-08-01T11:00:43;5.63;;;3.10;;
36315;SDS011;22343;50.820;2.666;2023-08-01T11:03:39;5.22;;;2.55;;
36315;SDS011;22343;50.820;2.666;2023-08-01T11:06:24;6.57;;;3.00;;
36315;SDS011;22343;50.820;2.666;2023-08-01T11:09:16;6.63;;;3.05;;
36315;SDS011;22343;50.820;2.666;2023-08-01T11:12:03;5.57;;;3.08;;
36315;SDS011;22343;50.820;2.666;2023-08-01T11:14:48;6.85;;;3.10;;
36315;SDS011;22343;50.820;2.666;2023-08-01T11:17:32;4.47;;;2.60;;
36315;SDS011;22343;50.820;2.666;2023-08-01T11:20:17;6.18;;;2.92;;
36315;SDS011;22343;50.820;2.666;2023-08-01T11:23:03;5.78;;;2.83;;
36315;SDS011;22343;50.820;2.666;2023-08-01T11:25:49;7.55;;;3.00;;
36315;SDS011;22343;50.820;2.666;2023-08-01T11:28:34;4.68;;;2.78;;
36315;SDS011;22343;50.820;2.666;2023-08-01T11:31:19;5.70;;;2.70;;
36315;SDS011;22343;50.820;2.666;2023-08-01T11:34:03;6.63;;;2.80;;
36315;SDS011;22343;50.820;2.666;2023-08-01T11:36:48;5.18;;;2.50;;
36315;SDS011;22343;50.820;2.666;2023-08-01T11:39:34;5.63;;;2.58;;
36315;SDS011;22343;50.820;2.666;2023-08-01T11:42:22;4.38;;;2.33;;
36315;SDS011;22343;50.820;2.666;2023-08-01T11:45:11;4.88;;;2.55;;
36315;SDS011;22343;50.820;2.666;2023-08-01T11:47:56;5.65;;;2.55;;
36315;SDS011;22343;50.820;2.666;2023-08-01T11:50:41;4.32;;;2.70;;
36315;SDS011;22343;50.820;2.666;2023-08-01T11:53:26;5.07;;;2.60;;
36315;SDS011;22343;50.820;2.666;2023-08-01T11:56:21;9.90;;;2.70;;
36315;SDS011;22343;50.820;2.666;2023-08-01T11:59:12;5.05;;;2.60;;
36315;SDS011;22343;50.820;2.666;2023-08-01T12:01:58;5.18;;;2.53;;
36315;SDS011;22343;50.820;2.666;2023-08-01T12:04:45;5.13;;;2.40;;
36315;SDS011;22343;50.820;2.666;2023-08-01T12:07:30;5.78;;;2.70;;
36315;SDS011;22343;50.820;2.666;2023-08-01T12:10:14;4.50;;;2.17;;
36315;SDS011;22343;50.820;2.666;2023-08-01T12:12:59;6.53;;;2.40;;
36315;SDS011;22343;50.820;2.666;2023-08-01T12:15:43;4.53;;;2.28;;
36315;SDS011;22343;50.820;2.666;2023-08-01T12:18:29;5.38;;;2.47;;
36315;SDS011;22343;50.820;2.666;2023-08-01T12:21:16;4.82;;;2.28;;
36315;SDS011;22343;50.820;2.666;2023-08-01T12:24:00;5.82;;;2.42;;
36315;SDS011;22343;50.820;2.666;2023-08-01T12:26:45;3.92;;;2.38;;
36315;SDS011;22343;50.820;2.666;2023-08-01T12:29:30;6.10;;;2.50;;
36315;SDS011;22343;50.820;2.666;2023-08-01T12:32:14;6.10;;;2.55;;
36315;SDS011;22343;50.820;2.666;2023-08-01T12:34:59;5.78;;;2.65;;
36315;SDS011;22343;50.820;2.666;2023-08-01T12:37:43;7.03;;;2.85;;
36315;SDS011;22343;50.820;2.666;2023-08-01T12:40:27;6.82;;;2.83;;
36315;SDS011;22343;50.820;2.666;2023-08-01T12:43:12;4.57;;;2.60;;
36315;SDS011;22343;50.820;2.666;2023-08-01T12:45:57;6.25;;;2.72;;
36315;SDS011;22343;50.820;2.666;2023-08-01T12:48:42;5.55;;;2.70;;
36315;SDS011;22343;50.820;2.666;2023-08-01T12:51:27;8.10;;;3.05;;
36315;SDS011;22343;50.820;2.666;2023-08-01T12:54:11;7.30;;;3.30;;
36315;SDS011;22343;50.820;2.666;2023-08-01T12:56:56;6.80;;;3.00;;
36315;SDS011;22343;50.820;2.666;2023-08-01T12:59:41;6.30;;;2.90;;
36315;SDS011;22343;50.820;2.666;2023-08-01T13:02:27;5.57;;;2.90;;
36315;SDS011;22343;50.820;2.666;2023-08-01T13:05:11;4.97;;;2.67;;
36315;SDS011;22343;50.820;2.666;2023-08-01T13:07:58;9.27;;;3.08;;
36315;SDS011;22343;50.820;2.666;2023-08-01T13:10:42;5.40;;;3.08;;
36315;SDS011;22343;50.820;2.666;2023-08-01T13:13:30;7.95;;;2.83;;
36315;SDS011;22343;50.820;2.666;2023-08-01T13:16:14;7.70;;;2.90;;
36315;SDS011;22343;50.820;2.666;2023-08-01T13:18:58;7.68;;;2.83;;
36315;SDS011;22343;50.820;2.666;2023-08-01T13:21:43;7.20;;;2.80;;
36315;SDS011;22343;50.820;2.666;2023-08-01T13:24:28;6.85;;;2.88;;
36315;SDS011;22343;50.820;2.666;2023-08-01T13:27:12;6.57;;;2.90;;
36315;SDS011;22343;50.820;2.666;2023-08-01T13:29:57;4.93;;;2.88;;
36315;SDS011;22343;50.820;2.666;2023-08-01T13:32:43;7.10;;;2.95;;
36315;SDS011;22343;50.820;2.666;2023-08-01T13:35:30;8.07;;;3.47;;
36315;SDS011;22343;50.820;2.666;2023-08-01T13:38:15;6.15;;;3.30;;
36315;SDS011;22343;50.820;2.666;2023-08-01T13:41:01;7.57;;;2.97;;
36315;SDS011;22343;50.820;2.666;2023-08-01T13:43:45;11.10;;;3.30;;
36315;SDS011;22343;50.820;2.666;2023-08-01T13:46:29;8.63;;;3.60;;
36315;SDS011;22343;50.820;2.666;2023-08-01T13:49:14;10.00;;;3.45;;
36315;SDS011;22343;50.820;2.666;2023-08-01T13:51:59;9.20;;;3.42;;
36315;SDS011;22343;50.820;2.666;2023-08-01T13:54:44;8.05;;;3.35;;
36315;SDS011;22343;50.820;2.666;2023-08-01T13:57:28;15.02;;;10.02;;
36315;SDS011;22343;50.820;2.666;2023-08-01T14:00:14;14.02;;;8.98;;
36315;SDS011;22343;50.820;2.666;2023-08-01T14:03:00;26.98;;;14.95;;
36315;SDS011;22343;50.820;2.666;2023-08-01T14:05:44;13.13;;;4.10;;
36315;SDS011;22343;50.820;2.666;2023-08-01T14:08:28;7.50;;;3.65;;
36315;SDS011;22343;50.820;2.666;2023-08-01T14:11:13;15.27;;;5.90;;
36315;SDS011;22343;50.820;2.666;2023-08-01T14:13:57;15.15;;;7.20;;
36315;SDS011;22343;50.820;2.666;2023-08-01T14:16:42;11.10;;;5.05;;
36315;SDS011;22343;50.820;2.666;2023-08-01T14:19:26;11.15;;;5.68;;
36315;SDS011;22343;50.820;2.666;2023-08-01T14:22:13;10.82;;;5.45;;
36315;SDS011;22343;50.820;2.666;2023-08-01T14:24:58;10.32;;;6.25;;
36315;SDS011;22343;50.820;2.666;2023-08-01T14:27:42;7.05;;;3.17;;
36315;SDS011;22343;50.820;2.666;2023-08-01T14:30:27;5.43;;;3.15;;
36315;SDS011;22343;50.820;2.666;2023-08-01T14:33:12;7.22;;;3.30;;
36315;SDS011;22343;50.820;2.666;2023-08-01T14:35:58;7.45;;;3.42;;
36315;SDS011;22343;50.820;2.666;2023-08-01T14:38:42;6.65;;;3.65;;
36315;SDS011;22343;50.820;2.666;2023-08-01T14:41:26;6.20;;;3.47;;
36315;SDS011;22343;50.820;2.666;2023-08-01T14:44:11;7.43;;;4.00;;
36315;SDS011;22343;50.820;2.666;2023-08-01T14:46:55;7.13;;;3.58;;
36315;SDS011;22343;50.820;2.666;2023-08-01T14:49:43;12.27;;;4.88;;
36315;SDS011;22343;50.820;2.666;2023-08-01T14:52:28;9.57;;;4.35;;
36315;SDS011;22343;50.820;2.666;2023-08-01T14:55:13;13.65;;;6.13;;
36315;SDS011;22343;50.820;2.666;2023-08-01T14:57:57;6.68;;;3.40;;
36315;SDS011;22343;50.820;2.666;2023-08-01T15:00:41;7.32;;;3.53;;
36315;SDS011;22343;50.820;2.666;2023-08-01T15:03:27;10.60;;;3.80;;
36315;SDS011;22343;50.820;2.666;2023-08-01T15:06:11;9.90;;;3.67;;
36315;SDS011;22343;50.820;2.666;2023-08-01T15:08:59;8.55;;;3.50;;
36315;SDS011;22343;50.820;2.666;2023-08-01T15:11:43;6.90;;;3.20;;
36315;SDS011;22343;50.820;2.666;2023-08-01T15:14:27;7.22;;;3.38;;
36315;SDS011;22343;50.820;2.666;2023-08-01T15:17:12;6.32;;;3.10;;
36315;SDS011;22343;50.820;2.666;2023-08-01T15:19:56;8.00;;;3.08;;
36315;SDS011;22343;50.820;2.666;2023-08-01T15:22:41;6.00;;;3.00;;
36315;SDS011;22343;50.820;2.666;2023-08-01T15:25:25;7.95;;;3.38;;
36315;SDS011;22343;50.820;2.666;2023-08-01T15:28:09;6.35;;;3.30;;
36315;SDS011;22343;50.820;2.666;2023-08-01T15:33:48;6.32;;;3.38;;
36315;SDS011;22343;50.820;2.666;2023-08-01T15:36:33;8.48;;;3.30;;
36315;SDS011;22343;50.820;2.666;2023-08-01T15:39:18;6.05;;;3.30;;
36315;SDS011;22343;50.820;2.666;2023-08-01T15:42:03;7.18;;;3.38;;
36315;SDS011;22343;50.820;2.666;2023-08-01T15:44:47;7.43;;;2.95;;
36315;SDS011;22343;50.820;2.666;2023-08-01T15:47:32;5.47;;;2.75;;
36315;SDS011;22343;50.820;2.666;2023-08-01T15:50:16;8.98;;;3.00;;
36315;SDS011;22343;50.820;2.666;2023-08-01T15:53:01;5.43;;;2.90;;
36315;SDS011;22343;50.820;2.666;2023-08-01T15:55:46;7.13;;;3.15;;
36315;SDS011;22343;50.820;2.666;2023-08-01T15:58:41;5.80;;;3.00;;
36315;SDS011;22343;50.820;2.666;2023-08-01T16:01:25;7.82;;;2.80;;
36315;SDS011;22343;50.820;2.666;2023-08-01T16:04:10;5.78;;;3.00;;
36315;SDS011;22343;50.820;2.666;2023-08-01T16:06:54;5.18;;;2.90;;
36315;SDS011;22343;50.820;2.666;2023-08-01T16:09:39;6.63;;;2.90;;
36315;SDS011;22343;50.820;2.666;2023-08-01T16:12:24;7.43;;;3.00;;
36315;SDS011;22343;50.820;2.666;2023-08-01T16:15:08;6.18;;;3.08;;
36315;SDS011;22343;50.820;2.666;2023-08-01T16:17:53;6.47;;;2.60;;
36315;SDS011;22343;50.820;2.666;2023-08-01T16:20:37;7.38;;;2.58;;
36315;SDS011;22343;50.820;2.666;2023-08-01T16:23:22;5.50;;;2.78;;
36315;SDS011;22343;50.820;2.666;2023-08-01T16:26:06;4.90;;;2.60;;
36315;SDS011;22343;50.820;2.666;2023-08-01T16:28:51;7.28;;;2.60;;
36315;SDS011;22343;50.820;2.666;2023-08-01T16:31:35;7.03;;;2.90;;
36315;SDS011;22343;50.820;2.666;2023-08-01T16:34:19;4.63;;;2.50;;
36315;SDS011;22343;50.820;2.666;2023-08-01T16:37:04;6.85;;;2.83;;